Time;durP1;ratioP1;P1;durP2;ratioP2;P2;SDS_P1;SDS_P2;PMS_P1;PMS_P2;Temp;Humidity;BMP_temperature;BMP_pressure;BME280_temperature;BME280_humidity;BME280_pressure;Samples;Min_cycle;Max_cycle;Signal;HPM_P1;HPM_P2
2022/03/06 00:01:45;;;;;;;21.77;10.52;;;4.60;99.90;;;;;;4946402;28;20055;-69
2022/03/06 00:04:12;;;;;;;71.63;45.28;;;4.60;99.90;;;;;;4953916;28;20075;-68
2022/03/06 00:06:39;;;;;;;26.58;18.48;;;4.70;99.90;;;;;;4950546;28;20116;-68
2022/03/06 00:09:06;;;;;;;22.05;12.75;;;4.70;99.90;;;;;;4983838;28;20562;-67
2022/03/06 00:11:33;;;;;;;22.88;12.40;;;4.60;99.90;;;;;;4954880;28;20517;-67
2022/03/06 00:14:00;;;;;;;24.02;12.18;;;4.60;99.90;;;;;;4955679;28;20085;-68
2022/03/06 00:16:27;;;;;;;18.90;11.43;;;4.50;99.90;;;;;;4937742;29;20395;-67
2022/03/06 00:18:55;;;;;;;21.83;12.55;;;4.50;99.90;;;;;;4984355;28;20055;-67
2022/03/06 00:21:22;;;;;;;20.30;11.35;;;4.50;99.90;;;;;;4962815;28;20562;-67
2022/03/06 00:23:49;;;;;;;20.48;10.85;;;4.50;99.90;;;;;;4969284;28;20051;-67
2022/03/06 00:26:16;;;;;;;19.45;9.85;;;4.50;99.90;;;;;;4939345;28;20051;-69
2022/03/06 00:28:43;;;;;;;19.25;10.80;;;4.50;99.90;;;;;;4985642;28;20415;-69
2022/03/06 00:31:09;;;;;;;22.42;13.60;;;4.50;99.90;;;;;;4959737;28;20102;-68
2022/03/06 00:33:36;;;;;;;22.38;10.77;;;4.50;99.90;;;;;;4971724;28;20057;-69
2022/03/06 00:36:04;;;;;;;23.45;10.50;;;4.40;99.90;;;;;;4971045;28;20411;-68
2022/03/06 00:38:31;;;;;;;20.33;11.65;;;4.40;99.90;;;;;;4970171;28;20078;-68
2022/03/06 00:40:58;;;;;;;20.15;12.65;;;4.40;99.90;;;;;;4924656;28;20059;-68
2022/03/06 00:43:25;;;;;;;21.65;11.63;;;4.50;99.90;;;;;;4952525;28;20054;-68
2022/03/06 00:45:52;;;;;;;23.75;10.95;;;4.50;99.90;;;;;;4962707;28;20062;-68
2022/03/06 00:48:19;;;;;;;21.98;11.27;;;4.50;99.90;;;;;;4957542;28;20055;-69
2022/03/06 00:50:46;;;;;;;17.30;10.55;;;4.50;99.90;;;;;;4951177;28;20071;-68
2022/03/06 00:53:13;;;;;;;18.08;11.48;;;4.40;99.90;;;;;;4942583;29;20048;-68
2022/03/06 00:55:40;;;;;;;18.30;10.18;;;4.50;99.90;;;;;;4947216;28;20043;-68
2022/03/06 00:58:09;;;;;;;19.08;10.27;;;4.50;99.90;;;;;;4967435;28;20061;-68
2022/03/06 01:00:40;;;;;;;19.10;9.60;;;4.50;99.90;;;;;;4952011;29;20059;-69
2022/03/06 01:03:13;;;;;;;17.92;10.25;;;4.50;99.90;;;;;;4967539;28;20079;-67
2022/03/06 01:05:40;;;;;;;14.73;10.02;;;4.40;99.90;;;;;;4950360;29;20047;-68
2022/03/06 01:08:07;;;;;;;19.50;10.70;;;4.40;99.90;;;;;;4967353;28;20049;-68
2022/03/06 01:10:35;;;;;;;22.02;12.75;;;4.40;99.90;;;;;;4971323;28;20114;-68
2022/03/06 01:13:05;;;;;;;18.90;10.45;;;4.50;99.90;;;;;;4957687;28;20055;-69
2022/03/06 01:15:33;;;;;;;17.23;10.25;;;4.50;99.90;;;;;;4955948;28;20061;-69
2022/03/06 01:18:00;;;;;;;18.23;8.45;;;4.40;99.90;;;;;;4958559;28;20047;-68
2022/03/06 01:20:27;;;;;;;20.45;10.20;;;4.40;99.90;;;;;;4971834;28;20077;-68
2022/03/06 01:22:53;;;;;;;15.57;9.43;;;4.40;99.90;;;;;;4966792;28;20069;-68
2022/03/06 01:25:20;;;;;;;15.75;8.95;;;4.40;99.90;;;;;;4965910;28;20130;-68
2022/03/06 01:27:47;;;;;;;17.40;8.15;;;4.40;99.90;;;;;;4964273;28;20055;-68
2022/03/06 01:30:22;;;;;;;20.58;9.50;;;4.30;99.30;;;;;;4970506;28;20052;-68
2022/03/06 01:32:49;;;;;;;18.25;9.93;;;4.30;99.80;;;;;;4957343;28;20054;-68
2022/03/06 01:35:16;;;;;;;14.85;8.30;;;4.30;99.90;;;;;;4972288;28;20133;-68
2022/03/06 01:37:43;;;;;;;14.60;8.70;;;4.20;99.70;;;;;;4958959;28;20452;-68
2022/03/06 01:40:11;;;;;;;13.63;9.80;;;4.20;99.90;;;;;;4941002;29;20043;-68
2022/03/06 01:42:44;;;;;;;14.13;7.70;;;4.20;99.90;;;;;;4957664;28;20057;-68
2022/03/06 01:45:12;;;;;;;14.82;8.35;;;4.30;99.20;;;;;;4972733;28;20059;-68
2022/03/06 01:47:41;;;;;;;19.63;8.40;;;4.20;99.80;;;;;;4958591;28;20415;-68
2022/03/06 01:50:18;;;;;;;15.65;8.32;;;4.20;99.80;;;;;;4956698;28;20127;-68
2022/03/06 01:52:46;;;;;;;12.73;7.22;;;4.30;99.70;;;;;;4958230;28;20137;-68
2022/03/06 01:55:13;;;;;;;12.57;7.53;;;4.20;99.80;;;;;;4941444;29;20107;-68
2022/03/06 01:57:40;;;;;;;15.60;7.35;;;4.20;99.40;;;;;;4958544;28;20086;-69
2022/03/06 02:00:13;;;;;;;13.98;8.52;;;4.20;98.80;;;;;;4962735;28;20043;-68
2022/03/06 02:02:40;;;;;;;15.02;7.95;;;4.20;99.30;;;;;;4974734;28;20078;-69
2022/03/06 02:05:08;;;;;;;236.18;155.90;;;4.20;99.30;;;;;;4970986;28;20058;-71
2022/03/06 02:07:35;;;;;;;47.10;26.05;;;4.20;99.50;;;;;;4954277;28;20526;-69
2022/03/06 02:10:03;;;;;;;19.40;10.60;;;4.20;98.60;;;;;;4942877;28;20095;-68
2022/03/06 02:12:31;;;;;;;12.75;8.48;;;4.20;98.30;;;;;;4978544;28;20471;-68
2022/03/06 02:14:59;;;;;;;17.95;7.38;;;4.20;98.40;;;;;;4991000;28;20042;-68
2022/03/06 02:17:29;;;;;;;13.73;7.38;;;4.20;99.00;;;;;;4947366;28;20170;-68
2022/03/06 02:20:01;;;;;;;14.13;7.35;;;4.20;99.20;;;;;;4962260;28;20050;-68
2022/03/06 02:22:29;;;;;;;11.98;7.68;;;4.20;98.50;;;;;;4958797;28;20061;-68
2022/03/06 02:24:56;;;;;;;15.95;8.25;;;4.20;99.10;;;;;;4972537;28;20110;-68
2022/03/06 02:27:24;;;;;;;15.68;7.65;;;4.20;98.60;;;;;;4952477;28;20134;-68
2022/03/06 02:29:51;;;;;;;13.43;8.00;;;4.20;98.60;;;;;;4957534;28;20126;-68
2022/03/06 02:32:20;;;;;;;12.10;7.70;;;4.20;98.50;;;;;;4955225;28;20126;-68
2022/03/06 02:34:48;;;;;;;10.95;7.10;;;4.20;98.50;;;;;;4940918;28;20471;-68
2022/03/06 02:37:16;;;;;;;13.52;6.55;;;4.20;97.90;;;;;;4968843;28;20047;-68
2022/03/06 02:39:43;;;;;;;11.77;6.47;;;4.20;98.70;;;;;;4958189;28;20042;-68
2022/03/06 02:42:12;;;;;;;15.20;6.00;;;4.20;98.10;;;;;;4930864;29;20062;-68
2022/03/06 02:44:39;;;;;;;14.75;9.20;;;4.20;98.00;;;;;;4969633;28;20059;-68
2022/03/06 02:47:06;;;;;;;14.23;6.72;;;4.20;98.10;;;;;;4961797;28;20126;-68
2022/03/06 02:49:33;;;;;;;11.48;6.13;;;4.20;97.40;;;;;;4937902;28;20047;-67
2022/03/06 02:52:00;;;;;;;11.05;6.50;;;4.20;98.20;;;;;;4969700;28;20170;-68
2022/03/06 02:54:27;;;;;;;13.82;6.22;;;4.20;97.80;;;;;;4953805;28;20077;-68
2022/03/06 02:56:54;;;;;;;13.50;6.90;;;4.20;97.60;;;;;;4955838;28;20316;-68
2022/03/06 02:59:21;;;;;;;10.18;6.30;;;4.20;97.60;;;;;;4938144;29;20492;-68
2022/03/06 03:01:48;;;;;;;11.38;5.85;;;4.20;97.10;;;;;;4958269;28;20502;-68
2022/03/06 03:04:15;;;;;;;11.45;6.65;;;4.20;97.70;;;;;;4953972;28;20043;-68
2022/03/06 03:06:44;;;;;;;12.18;7.10;;;4.20;98.60;;;;;;4962224;28;20048;-67
2022/03/06 03:09:13;;;;;;;13.97;6.93;;;4.20;97.70;;;;;;4970393;28;20138;-68
2022/03/06 03:11:40;;;;;;;18.58;7.75;;;4.10;97.70;;;;;;4968433;28;20047;-68
2022/03/06 03:14:07;;;;;;;8.55;6.00;;;4.10;98.10;;;;;;4940849;28;20500;-69
2022/03/06 03:16:34;;;;;;;18.13;6.40;;;4.10;98.10;;;;;;4950692;28;20054;-67
2022/03/06 03:19:01;;;;;;;10.15;6.13;;;4.20;97.80;;;;;;4930342;29;20047;-68
2022/03/06 03:21:29;;;;;;;7.57;6.35;;;4.20;97.70;;;;;;4964863;28;20039;-67
2022/03/06 03:23:56;;;;;;;11.30;5.32;;;4.10;98.30;;;;;;4948638;28;20530;-67
2022/03/06 03:26:23;;;;;;;14.52;5.93;;;4.10;97.70;;;;;;4954224;28;20110;-68
2022/03/06 03:28:50;;;;;;;8.15;4.95;;;4.10;97.80;;;;;;4959202;28;20045;-68
2022/03/06 03:31:18;;;;;;;10.50;5.45;;;4.10;98.00;;;;;;4974405;28;20050;-68
2022/03/06 03:33:45;;;;;;;10.32;5.70;;;4.10;97.40;;;;;;4976975;28;20050;-67
2022/03/06 03:36:12;;;;;;;10.55;5.13;;;4.10;97.30;;;;;;4947465;29;20411;-67
2022/03/06 03:38:41;;;;;;;9.30;5.37;;;4.10;97.90;;;;;;4966240;28;20070;-67
2022/03/06 03:41:08;;;;;;;10.43;5.57;;;4.00;97.60;;;;;;4971481;28;20051;-68
2022/03/06 03:43:35;;;;;;;9.70;5.38;;;4.00;98.00;;;;;;4935094;29;20500;-67
2022/03/06 03:46:03;;;;;;;11.43;5.28;;;4.00;98.20;;;;;;4953803;28;20054;-67
2022/03/06 03:48:30;;;;;;;11.07;5.70;;;4.10;98.20;;;;;;4959426;28;20440;-68
2022/03/06 03:50:57;;;;;;;9.20;5.43;;;4.00;98.00;;;;;;4954227;28;20051;-68
2022/03/06 03:53:24;;;;;;;13.23;5.88;;;4.00;97.80;;;;;;4942510;28;20068;-67
2022/03/06 03:55:52;;;;;;;9.18;5.28;;;4.00;97.80;;;;;;4957177;28;20061;-68
2022/03/06 03:58:19;;;;;;;10.15;5.03;;;4.00;98.30;;;;;;4958585;28;20082;-67
2022/03/06 04:00:52;;;;;;;9.50;5.03;;;4.00;98.70;;;;;;4955005;28;20069;-68
2022/03/06 04:03:19;;;;;;;14.85;5.53;;;4.00;98.40;;;;;;4958618;28;20045;-67
2022/03/06 04:05:46;;;;;;;10.70;3.83;;;4.00;98.60;;;;;;4971337;28;20082;-68
2022/03/06 04:08:13;;;;;;;9.93;5.25;;;4.00;97.50;;;;;;4957923;28;20055;-67
2022/03/06 04:10:40;;;;;;;7.55;4.28;;;4.10;97.90;;;;;;4948089;28;20078;-68
2022/03/06 04:13:08;;;;;;;5.80;4.38;;;4.10;97.50;;;;;;4937037;28;20055;-68
2022/03/06 04:15:35;;;;;;;8.18;4.07;;;4.10;97.30;;;;;;4937053;29;20141;-67
2022/03/06 04:18:02;;;;;;;8.10;4.82;;;4.10;97.30;;;;;;4953146;28;20123;-67
2022/03/06 04:20:30;;;;;;;10.65;4.75;;;4.10;96.70;;;;;;4983750;28;20058;-68
2022/03/06 04:22:57;;;;;;;9.18;4.57;;;4.10;97.00;;;;;;4951820;29;20426;-68
2022/03/06 04:25:24;;;;;;;7.65;4.70;;;4.10;96.90;;;;;;4970374;28;20065;-67
2022/03/06 04:27:51;;;;;;;9.70;4.45;;;4.10;96.40;;;;;;4941231;28;20126;-68
2022/03/06 04:30:18;;;;;;;11.73;3.80;;;4.10;96.90;;;;;;4960292;28;20406;-67
2022/03/06 04:32:45;;;;;;;8.38;3.92;;;4.10;96.40;;;;;;4950243;28;20043;-67
2022/03/06 04:35:12;;;;;;;12.18;4.32;;;4.10;96.30;;;;;;4967940;28;20148;-68
2022/03/06 04:37:39;;;;;;;8.48;3.88;;;4.10;96.30;;;;;;4952173;28;20053;-67
2022/03/06 04:40:06;;;;;;;11.82;3.97;;;4.10;97.10;;;;;;4956626;28;20430;-68
2022/03/06 04:42:33;;;;;;;6.28;3.55;;;4.10;96.60;;;;;;4959927;28;20054;-68
2022/03/06 04:45:00;;;;;;;10.27;4.30;;;4.10;96.40;;;;;;4968280;28;20125;-68
2022/03/06 04:47:27;;;;;;;8.82;4.47;;;4.10;95.80;;;;;;4976644;28;20053;-68
2022/03/06 04:49:54;;;;;;;11.85;4.70;;;4.10;96.30;;;;;;4957812;28;20098;-68
2022/03/06 04:52:21;;;;;;;9.80;3.65;;;4.20;96.00;;;;;;4956048;28;20053;-67
2022/03/06 04:54:48;;;;;;;7.95;4.07;;;4.20;96.10;;;;;;4968048;28;20047;-68
2022/03/06 04:57:15;;;;;;;8.20;3.63;;;4.20;95.60;;;;;;4957252;28;20055;-67
2022/03/06 04:59:42;;;;;;;11.07;4.35;;;4.20;95.80;;;;;;4953575;28;20045;-68
2022/03/06 05:02:09;;;;;;;6.50;3.28;;;4.20;95.60;;;;;;4973382;28;20074;-67
2022/03/06 05:04:36;;;;;;;8.25;3.03;;;4.20;94.90;;;;;;4961527;28;20062;-67
2022/03/06 05:07:03;;;;;;;8.75;3.55;;;4.20;95.20;;;;;;4955147;28;20042;-68
2022/03/06 05:09:30;;;;;;;7.70;3.53;;;4.20;95.10;;;;;;4957178;28;20056;-68
2022/03/06 05:11:57;;;;;;;7.60;3.72;;;4.20;95.20;;;;;;4964125;28;20051;-67
2022/03/06 05:14:24;;;;;;;7.93;3.42;;;4.30;95.00;;;;;;4966061;28;20061;-68
2022/03/06 05:16:51;;;;;;;7.60;3.60;;;4.30;95.00;;;;;;4966708;28;20057;-68
2022/03/06 05:19:18;;;;;;;8.10;3.45;;;4.30;94.70;;;;;;4956197;28;20047;-67
2022/03/06 05:21:45;;;;;;;12.48;4.47;;;4.30;94.90;;;;;;4954538;28;20053;-67
2022/03/06 05:24:12;;;;;;;6.72;3.10;;;4.30;94.00;;;;;;4970924;28;20055;-68
2022/03/06 05:26:39;;;;;;;8.65;3.00;;;4.30;94.90;;;;;;4970970;28;20061;-67
2022/03/06 05:29:06;;;;;;;6.07;3.55;;;4.40;94.00;;;;;;4957094;28;20046;-68
2022/03/06 05:31:32;;;;;;;8.57;3.22;;;4.40;93.70;;;;;;4968406;28;20394;-68
2022/03/06 05:34:00;;;;;;;7.20;3.83;;;4.40;93.80;;;;;;4958246;28;20458;-68
2022/03/06 05:36:27;;;;;;;6.68;4.18;;;4.30;93.30;;;;;;4952065;29;20043;-68
2022/03/06 05:38:54;;;;;;;10.77;5.55;;;4.40;93.30;;;;;;4955145;28;20051;-68
2022/03/06 05:41:20;;;;;;;6.10;3.03;;;4.40;93.20;;;;;;4949899;28;20513;-68
2022/03/06 05:43:48;;;;;;;6.78;3.35;;;4.40;93.00;;;;;;4954290;28;20051;-68
2022/03/06 05:46:15;;;;;;;7.40;4.15;;;4.40;93.10;;;;;;4956984;28;20138;-68
2022/03/06 05:48:42;;;;;;;6.82;3.33;;;4.30;93.20;;;;;;4986482;28;20546;-68
2022/03/06 05:51:09;;;;;;;8.05;2.78;;;4.40;92.70;;;;;;4955031;28;20043;-68
2022/03/06 05:53:36;;;;;;;6.50;2.83;;;4.40;92.80;;;;;;4939786;28;20051;-68
2022/03/06 05:56:03;;;;;;;6.45;2.85;;;4.40;92.50;;;;;;4966530;28;20126;-68
2022/03/06 05:58:30;;;;;;;8.05;3.25;;;4.40;92.20;;;;;;4970408;28;20055;-68
2022/03/06 06:00:57;;;;;;;12.45;3.40;;;4.40;92.20;;;;;;4944625;28;20054;-67
2022/03/06 06:03:25;;;;;;;13.50;6.60;;;4.40;92.60;;;;;;4964455;28;20059;-68
2022/03/06 06:05:52;;;;;;;7.25;3.65;;;4.30;92.80;;;;;;4964465;28;20078;-68
2022/03/06 06:08:22;;;;;;;6.57;3.38;;;4.30;92.70;;;;;;4988342;28;20109;-68
2022/03/06 06:10:49;;;;;;;5.88;3.03;;;4.30;92.40;;;;;;4966913;28;20494;-68
2022/03/06 06:13:19;;;;;;;6.78;3.47;;;4.30;92.60;;;;;;4969590;28;20513;-68
2022/03/06 06:15:46;;;;;;;7.20;3.13;;;4.30;92.80;;;;;;4935609;29;20083;-68
2022/03/06 06:18:18;;;;;;;7.22;3.55;;;4.30;92.90;;;;;;4969576;28;20451;-68
2022/03/06 06:20:45;;;;;;;6.05;2.47;;;4.30;92.90;;;;;;4943454;28;20065;-68
2022/03/06 06:23:12;;;;;;;6.32;2.92;;;4.30;93.10;;;;;;4958069;28;20043;-68
2022/03/06 06:25:39;;;;;;;6.38;3.22;;;4.30;93.20;;;;;;4951645;28;20402;-68
2022/03/06 06:28:06;;;;;;;10.18;3.20;;;4.30;93.10;;;;;;4954455;28;20047;-68
2022/03/06 06:30:33;;;;;;;8.57;3.72;;;4.20;93.20;;;;;;4986941;28;20142;-69
2022/03/06 06:33:00;;;;;;;7.32;3.10;;;4.20;93.60;;;;;;4955786;28;20051;-68
2022/03/06 06:35:27;;;;;;;5.15;2.83;;;4.10;93.60;;;;;;4955207;28;20495;-68
2022/03/06 06:37:54;;;;;;;8.07;2.95;;;4.10;93.60;;;;;;4955272;28;20083;-68
2022/03/06 06:40:21;;;;;;;5.97;3.00;;;4.10;93.70;;;;;;4938945;28;20538;-68
2022/03/06 06:42:48;;;;;;;9.30;3.92;;;4.10;93.80;;;;;;4938648;28;20055;-68
2022/03/06 06:45:15;;;;;;;7.78;3.28;;;4.00;93.80;;;;;;4954033;29;20511;-68
2022/03/06 06:47:42;;;;;;;5.32;3.17;;;4.10;93.90;;;;;;4963775;28;20054;-68
2022/03/06 06:50:09;;;;;;;9.57;3.63;;;4.10;93.50;;;;;;4955924;28;20051;-68
2022/03/06 06:52:36;;;;;;;6.75;3.85;;;4.10;93.60;;;;;;4954743;28;20138;-68
2022/03/06 06:55:04;;;;;;;12.75;3.40;;;4.10;93.70;;;;;;4949343;28;20047;-68
2022/03/06 06:57:32;;;;;;;6.28;3.05;;;4.10;93.20;;;;;;4938696;28;20073;-68
2022/03/06 07:00:00;;;;;;;7.78;3.88;;;4.10;93.50;;;;;;4938329;29;20187;-68
2022/03/06 07:02:27;;;;;;;5.32;3.10;;;4.10;93.30;;;;;;4965179;28;20499;-68
2022/03/06 07:04:59;;;;;;;7.00;3.20;;;4.10;93.60;;;;;;4952973;28;20047;-68
2022/03/06 07:07:26;;;;;;;7.00;3.75;;;4.10;93.70;;;;;;4939428;28;20131;-68
2022/03/06 07:09:53;;;;;;;9.90;3.90;;;4.10;93.40;;;;;;4971016;28;20384;-68
2022/03/06 07:12:20;;;;;;;7.88;4.72;;;4.10;93.30;;;;;;4969923;28;20051;-68
2022/03/06 07:14:47;;;;;;;9.32;3.30;;;4.20;93.40;;;;;;4942168;29;20052;-68
2022/03/06 07:17:14;;;;;;;6.22;3.25;;;4.20;93.40;;;;;;4967987;28;20542;-68
2022/03/06 07:19:41;;;;;;;10.02;3.83;;;4.20;93.00;;;;;;4968763;28;20467;-68
2022/03/06 07:22:08;;;;;;;7.35;3.67;;;4.20;93.20;;;;;;4986186;28;20142;-68
2022/03/06 07:24:35;;;;;;;6.57;3.47;;;4.30;93.20;;;;;;4952106;28;20410;-68
2022/03/06 07:27:01;;;;;;;9.70;3.58;;;4.30;93.20;;;;;;4987320;28;20057;-68
2022/03/06 07:29:28;;;;;;;9.80;4.00;;;4.30;93.30;;;;;;4957287;28;20057;-68
2022/03/06 07:31:55;;;;;;;7.35;4.32;;;4.30;93.10;;;;;;4952696;28;20138;-68
2022/03/06 07:34:22;;;;;;;7.20;3.65;;;4.30;93.10;;;;;;4957150;28;20066;-68
2022/03/06 07:36:49;;;;;;;8.02;3.88;;;4.30;93.10;;;;;;4971262;28;20141;-68
2022/03/06 07:39:16;;;;;;;9.35;3.50;;;4.30;93.20;;;;;;4947741;28;20058;-68
2022/03/06 07:41:43;;;;;;;8.63;5.22;;;4.30;93.30;;;;;;4946736;28;20039;-68
2022/03/06 07:44:10;;;;;;;9.13;5.40;;;4.30;93.40;;;;;;4944362;28;20137;-68
2022/03/06 07:46:37;;;;;;;8.27;4.57;;;4.30;93.50;;;;;;4962158;28;20062;-68
2022/03/06 07:49:04;;;;;;;8.65;3.25;;;4.30;93.70;;;;;;4953700;28;20128;-69
2022/03/06 07:51:31;;;;;;;6.57;3.05;;;4.30;93.50;;;;;;4954827;28;20063;-69
2022/03/06 07:53:58;;;;;;;8.10;4.10;;;4.40;94.00;;;;;;4948629;28;20054;-68
2022/03/06 07:56:25;;;;;;;7.10;3.38;;;4.40;93.70;;;;;;4967470;28;20047;-68
2022/03/06 07:58:52;;;;;;;10.65;4.03;;;4.40;93.40;;;;;;4963375;28;20061;-68
2022/03/06 08:01:19;;;;;;;8.15;3.95;;;4.50;93.70;;;;;;4962042;28;20054;-68
2022/03/06 08:03:46;;;;;;;11.27;3.97;;;4.50;93.90;;;;;;4954420;28;20043;-68
2022/03/06 08:06:13;;;;;;;8.48;3.25;;;4.50;93.10;;;;;;4952538;29;20047;-68
2022/03/06 08:08:43;;;;;;;11.50;4.13;;;4.50;93.70;;;;;;4952040;29;20054;-68
2022/03/06 08:11:10;;;;;;;13.13;4.38;;;4.50;93.90;;;;;;4983562;28;20055;-68
2022/03/06 08:13:37;;;;;;;7.32;4.07;;;4.60;93.60;;;;;;4952032;29;20055;-68
2022/03/06 08:16:04;;;;;;;9.82;4.13;;;4.60;93.60;;;;;;4964389;28;20086;-68
2022/03/06 08:18:31;;;;;;;9.93;3.88;;;4.60;93.30;;;;;;4954486;28;20063;-68
2022/03/06 08:21:01;;;;;;;19.20;4.72;;;4.60;93.40;;;;;;4959512;28;20042;-67
2022/03/06 08:23:28;;;;;;;8.32;3.75;;;4.60;93.40;;;;;;4960659;28;20118;-68
2022/03/06 08:25:55;;;;;;;8.52;3.90;;;4.50;93.50;;;;;;4955668;28;20055;-68
2022/03/06 08:28:23;;;;;;;7.45;3.50;;;4.50;93.70;;;;;;4940582;28;20053;-69
2022/03/06 08:30:50;;;;;;;10.80;4.85;;;4.50;93.90;;;;;;4955354;28;20047;-68
2022/03/06 08:33:17;;;;;;;7.38;4.25;;;4.50;94.30;;;;;;4936955;28;20499;-68
2022/03/06 08:35:44;;;;;;;9.63;4.28;;;4.50;94.10;;;;;;4955164;28;20454;-69
2022/03/06 08:38:16;;;;;;;10.90;3.60;;;4.60;94.20;;;;;;4954885;28;20059;-68
2022/03/06 08:40:43;;;;;;;7.40;4.22;;;4.60;94.30;;;;;;4951462;28;20164;-69
2022/03/06 08:43:10;;;;;;;13.35;5.30;;;4.60;94.70;;;;;;4944058;29;20353;-68
2022/03/06 08:45:37;;;;;;;9.95;4.70;;;4.70;94.00;;;;;;4967485;28;20055;-68
2022/03/06 08:48:04;;;;;;;7.88;3.65;;;4.80;94.40;;;;;;4987059;28;20364;-69
2022/03/06 08:50:31;;;;;;;7.32;4.10;;;4.90;93.80;;;;;;4967577;28;20059;-68
2022/03/06 08:52:58;;;;;;;9.75;4.50;;;4.90;93.40;;;;;;4983945;28;20055;-68
2022/03/06 08:55:25;;;;;;;12.23;4.30;;;5.00;94.10;;;;;;4954383;28;20050;-68
2022/03/06 08:57:52;;;;;;;8.35;4.63;;;5.00;93.80;;;;;;4920419;28;20182;-69
2022/03/06 09:00:19;;;;;;;9.70;4.65;;;5.10;93.00;;;;;;4956411;28;20138;-68
2022/03/06 09:02:46;;;;;;;14.40;4.68;;;5.10;93.80;;;;;;4926617;29;20463;-68
2022/03/06 09:05:13;;;;;;;10.63;5.13;;;5.10;93.20;;;;;;4967880;28;20051;-68
2022/03/06 09:07:40;;;;;;;8.40;4.45;;;5.20;93.20;;;;;;4952791;28;20126;-68
2022/03/06 09:10:09;;;;;;;8.93;4.63;;;5.20;93.40;;;;;;4952937;29;20551;-68
2022/03/06 09:12:37;;;;;;;;;;;5.30;92.80;;;;;;4952352;29;20051;-68
2022/03/06 09:15:05;;;;;;;9.27;4.65;;;5.30;92.10;;;;;;4952511;28;20359;-68
2022/03/06 09:17:33;;;;;;;15.18;5.03;;;5.30;92.30;;;;;;4952184;29;20128;-67
2022/03/06 09:20:02;;;;;;;8.52;4.88;;;5.40;92.10;;;;;;4952631;29;20142;-67
2022/03/06 09:22:29;;;;;;;13.45;5.40;;;5.40;92.20;;;;;;4951464;29;20088;-68
2022/03/06 09:24:57;;;;;;;8.45;3.97;;;5.40;92.00;;;;;;4968976;28;20126;-68
2022/03/06 09:27:24;;;;;;;9.35;4.30;;;5.50;91.50;;;;;;4981810;28;20051;-68
2022/03/06 09:29:51;;;;;;;14.35;5.32;;;5.50;91.20;;;;;;4985759;28;20130;-68
2022/03/06 09:32:18;;;;;;;9.05;4.90;;;5.50;91.20;;;;;;4987454;28;20043;-67
2022/03/06 09:34:45;;;;;;;9.00;4.53;;;5.50;91.00;;;;;;4954964;28;20059;-68
2022/03/06 09:37:12;;;;;;;9.88;4.07;;;5.60;90.60;;;;;;4935995;29;20238;-67
2022/03/06 09:39:39;;;;;;;57.40;36.03;;;5.60;90.10;;;;;;4988418;28;20093;-66
2022/03/06 09:42:06;;;;;;;30.35;18.42;;;5.70;90.20;;;;;;4959562;28;20054;-67
2022/03/06 09:44:36;;;;;;;9.95;5.30;;;5.70;90.00;;;;;;4955556;28;20055;-68
2022/03/06 09:47:04;;;;;;;;;;;5.90;90.60;;;;;;4985073;28;20559;-66
2022/03/06 09:49:31;;;;;;;9.13;5.75;;;5.90;89.60;;;;;;4954348;29;19927;-66
2022/03/06 09:51:58;;;;;;;8.88;4.25;;;5.90;89.90;;;;;;4985968;28;20043;-67
2022/03/06 09:54:25;;;;;;;11.02;5.28;;;6.10;91.20;;;;;;4954852;28;20122;-67
2022/03/06 09:56:52;;;;;;;9.05;5.10;;;6.10;90.60;;;;;;4985315;28;20062;-66
2022/03/06 09:59:19;;;;;;;12.40;4.07;;;6.20;90.60;;;;;;4970321;28;20083;-66
2022/03/06 10:01:49;;;;;;;8.00;4.10;;;6.20;89.80;;;;;;4986454;28;20078;-66
2022/03/06 10:04:21;;;;;;;11.85;4.55;;;6.10;89.70;;;;;;4984986;28;20059;-66
2022/03/06 10:07:14;;;;;;;11.65;4.40;;;6.10;89.20;;;;;;4986591;28;20109;-66
2022/03/06 10:09:48;;;;;;;7.60;3.80;;;6.20;90.00;;;;;;4950465;28;20058;-65
2022/03/06 10:12:29;;;;;;;7.60;4.03;;;6.20;87.50;;;;;;4984127;28;20126;-66
2022/03/06 10:15:06;;;;;;;8.18;4.00;;;6.20;87.10;;;;;;4984079;28;20521;-66
2022/03/06 10:17:34;;;;;;;9.60;3.35;;;6.20;87.70;;;;;;4955957;28;20051;-66
2022/03/06 10:20:03;;;;;;;7.10;4.25;;;6.20;88.00;;;;;;4971579;28;20047;-66
2022/03/06 10:22:32;;;;;;;6.95;4.32;;;6.10;86.80;;;;;;4937985;29;20044;-65
2022/03/06 10:25:21;;;;;;;12.15;3.50;;;6.10;87.00;;;;;;4957000;28;20043;-66
2022/03/06 10:27:57;;;;;;;8.73;3.30;;;6.10;86.70;;;;;;4955925;28;20090;-66
2022/03/06 10:30:37;;;;;;;8.68;4.05;;;6.10;85.80;;;;;;4978021;28;20043;-66
2022/03/06 10:33:10;;;;;;;9.65;4.32;;;6.00;86.90;;;;;;4985016;28;20052;-66
2022/03/06 10:35:39;;;;;;;9.48;3.55;;;6.00;86.20;;;;;;4951999;29;20079;-66
2022/03/06 10:38:26;;;;;;;9.52;4.20;;;5.90;86.60;;;;;;4981998;28;20043;-66
2022/03/06 10:40:55;;;;;;;8.45;3.67;;;5.90;86.00;;;;;;4953239;28;20130;-65
2022/03/06 10:43:27;;;;;;;16.98;4.70;;;5.90;85.30;;;;;;4985426;28;20126;-66
2022/03/06 10:46:11;;;;;;;12.65;4.05;;;6.00;83.90;;;;;;4968998;28;20043;-66
2022/03/06 10:48:43;;;;;;;6.13;3.55;;;6.10;83.70;;;;;;4968487;28;20391;-65
2022/03/06 10:51:11;;;;;;;8.02;4.10;;;6.10;83.50;;;;;;4968684;28;20578;-66
2022/03/06 10:53:39;;;;;;;8.52;4.05;;;6.20;83.90;;;;;;4953721;28;20399;-66
2022/03/06 10:56:08;;;;;;;11.73;4.65;;;6.20;83.40;;;;;;4937252;29;20130;-66
2022/03/06 10:58:43;;;;;;;13.25;4.10;;;6.20;82.80;;;;;;4954589;28;20399;-65
2022/03/06 11:01:27;;;;;;;6.97;3.33;;;6.30;83.50;;;;;;4954053;29;20098;-66
2022/03/06 11:03:55;;;;;;;7.78;3.67;;;6.40;81.10;;;;;;4969381;28;20142;-66
2022/03/06 11:06:22;;;;;;;11.98;5.05;;;6.40;82.60;;;;;;4982528;28;20805;-66
2022/03/06 11:08:49;;;;;;;10.18;4.82;;;6.50;81.30;;;;;;4969781;28;20492;-66
2022/03/06 11:11:19;;;;;;;;;;;6.50;80.50;;;;;;4939402;28;20047;-66
2022/03/06 11:13:46;;;;;;;7.88;4.55;;;6.50;80.50;;;;;;4964654;28;19961;-67
2022/03/06 11:16:13;;;;;;;8.88;4.38;;;6.60;78.60;;;;;;4983924;28;20081;-68
2022/03/06 11:18:41;;;;;;;8.95;3.65;;;6.50;78.40;;;;;;4965488;28;20047;-66
2022/03/06 11:21:07;;;;;;;6.35;3.70;;;6.60;79.10;;;;;;4968486;28;20051;-66
2022/03/06 11:23:35;;;;;;;97.43;62.67;;;6.60;79.50;;;;;;4983560;28;20047;-66
2022/03/06 11:26:17;;;;;;;11.15;4.82;;;7.00;80.30;;;;;;4942918;28;20106;-69
2022/03/06 11:29:25;;;;;;;8.38;3.85;;;7.00;78.30;;;;;;4946998;29;20174;-68
2022/03/06 11:31:54;;;;;;;13.60;5.20;;;7.00;77.80;;;;;;4944389;28;20521;-66
2022/03/06 11:34:26;;;;;;;7.13;3.42;;;7.10;78.40;;;;;;4966684;28;20094;-68
2022/03/06 11:36:58;;;;;;;8.82;3.75;;;7.10;77.50;;;;;;4969827;28;20078;-63
2022/03/06 11:39:31;;;;;;;7.35;3.17;;;7.10;77.10;;;;;;4981469;28;20134;-68
2022/03/06 11:42:04;;;;;;;4.40;2.35;;;7.20;77.30;;;;;;4958322;28;20051;-66
2022/03/06 11:44:36;;;;;;;8.18;3.13;;;7.00;73.10;;;;;;4963937;28;20492;-65
2022/03/06 11:47:18;;;;;;;7.95;3.83;;;7.00;73.90;;;;;;4951335;28;20070;-65
2022/03/06 11:49:55;;;;;;;4.90;3.17;;;7.00;75.50;;;;;;4956190;28;20081;-65
2022/03/06 11:52:26;;;;;;;5.15;2.92;;;7.00;75.50;;;;;;4936075;28;20762;-70
2022/03/06 11:54:53;;;;;;;4.93;2.42;;;7.10;74.70;;;;;;4953170;28;20065;-65
2022/03/06 11:57:37;;;;;;;40.92;25.95;;;7.10;74.80;;;;;;4965518;28;20129;-66
2022/03/06 12:00:17;;;;;;;6.80;2.92;;;7.20;74.00;;;;;;4950798;28;20044;-65
2022/03/06 12:02:46;;;;;;;5.93;3.35;;;7.00;73.60;;;;;;4960807;28;20043;-66
2022/03/06 12:05:14;;;;;;;61.42;39.42;;;7.00;77.20;;;;;;4944310;28;20047;-65
2022/03/06 12:07:41;;;;;;;9.25;5.35;;;7.00;75.30;;;;;;4929662;28;20051;-65
2022/03/06 12:10:10;;;;;;;8.70;3.00;;;7.00;75.20;;;;;;4984289;28;20464;-65
2022/03/06 12:12:38;;;;;;;5.85;2.83;;;6.90;75.00;;;;;;4951797;29;20505;-65
2022/03/06 12:15:14;;;;;;;7.80;3.07;;;7.00;77.10;;;;;;4954029;28;20464;-65
2022/03/06 12:17:41;;;;;;;6.38;2.92;;;7.00;75.50;;;;;;4953549;28;20308;-65
2022/03/06 12:20:08;;;;;;;8.63;2.45;;;7.10;74.00;;;;;;4953852;28;20050;-65
2022/03/06 12:22:36;;;;;;;4.18;2.38;;;7.20;72.60;;;;;;4953326;28;20047;-65
2022/03/06 12:25:09;;;;;;;5.13;2.40;;;7.30;72.20;;;;;;4958489;28;20429;-66
2022/03/06 12:27:57;;;;;;;3.22;2.05;;;7.20;70.80;;;;;;4966043;28;20085;-65
2022/03/06 12:30:24;;;;;;;5.85;2.35;;;7.20;72.30;;;;;;4950123;28;20066;-65
2022/03/06 12:32:52;;;;;;;8.50;3.53;;;7.30;72.70;;;;;;4967800;28;20051;-66
2022/03/06 12:35:25;;;;;;;8.30;2.58;;;7.30;71.10;;;;;;4939502;28;20046;-66
2022/03/06 12:37:59;;;;;;;5.35;3.28;;;7.40;72.30;;;;;;4963558;28;20122;-65
2022/03/06 12:40:28;;;;;;;7.45;3.03;;;7.50;73.10;;;;;;4969027;28;20154;-66
2022/03/06 12:43:03;;;;;;;7.90;2.80;;;7.60;72.50;;;;;;4955420;28;20055;-65
2022/03/06 12:45:31;;;;;;;5.47;2.85;;;7.40;70.00;;;;;;4946922;28;20074;-67
2022/03/06 12:47:58;;;;;;;7.38;2.40;;;7.50;72.30;;;;;;4954009;28;20086;-65
2022/03/06 12:50:25;;;;;;;7.35;2.70;;;7.60;69.20;;;;;;4983136;28;20521;-66
2022/03/06 12:52:54;;;;;;;18.45;10.18;;;7.60;68.50;;;;;;4966683;28;20134;-66
2022/03/06 12:55:22;;;;;;;11.27;3.58;;;7.50;67.60;;;;;;4970153;28;20101;-69
2022/03/06 12:57:55;;;;;;;5.82;2.22;;;7.70;68.10;;;;;;4956460;28;20078;-70
2022/03/06 13:00:26;;;;;;;5.82;2.17;;;7.80;70.00;;;;;;4960316;28;20460;-69